Terminal Aerodrome Forecast
Issued by NWS Wakefield, VA

Home | Current Version | Previous Version | Text Only | Print | Product List | Glossary On
Versions: 1 2 3 4 5 6 7 8 9 10 11 12 13 14 15 16 17 18 19 20
000
FTUS41 KAKQ 031730
TAFECG
TAF
KECG 031730Z 0318/0418 20012G17KT P6SM SCT030 SCT100
     FM040000 21009KT P6SM SCT080
     FM041400 21012KT P6SM SCT090=

USA.gov is the U.S. government's official web portal to all federal, state and local government web resources and services.